Seven Pines, Texas
Current Conditions -  °F | °C
As of 1:15 AM on Saturday 20 Dec 2014 (Local Time) from KOSA Reporting Station
Overcast Overcast  
Wind Chill: 45°   Ceiling: 700
Heat Index: 45°   Visibility: 5mi
Dew Point: 44°   Wind: 3mph
Humidity: 94%   Direction: 40°NE
Pressure: 30.22"   Gusts: NA
Location:  32.7353°N, 94.9492°W
Report Text: KOSA 200715Z AUTO 04003KT 5SM OVC007 07/07 A3022 RMK AO1 T00740065
Loading
Personal Weather Stations






























Interactive Weather Map New forecast layout! Learn more

10-Day Weather Forecast

Advertisements
Track Severe Weather on mobile